ADDS METAR Data INFO
IDs: Format: Raw Decoded Include TAF

Data at: 1514 UTC 23 Oct 2017

KVCV 231455Z AUTO 00000KT 10SM CLR 13/M03 A3034 RMK AO2
KVCV 231435Z AUTO 00000KT 10SM CLR 12/M03 A3033 RMK AO2
KVCV 231415Z AUTO 16006KT 10SM CLR 11/M03 A3032 RMK AO2
KVCV 231355Z AUTO 00000KT 10SM CLR 11/M03 A3032 RMK AO2
KVCV 231335Z AUTO 00000KT 10SM CLR 11/M03 A3032 RMK AO2
KVCV 231315Z AUTO 00000KT 10SM CLR 11/M03 A3031 RMK AO2
KVCV 231255Z AUTO 00000KT 10SM CLR 11/M03 A3031 RMK AO2
KVCV 231235Z AUTO 00000KT 10SM CLR 11/M03 A3031 RMK AO2
KVCV 231215Z AUTO 00000KT 10SM CLR 11/M03 A3031 RMK AO2
KVCV 231155Z AUTO 00000KT 10SM CLR 11/M03 A3030 RMK AO2
KVCV 231135Z AUTO 00000KT 10SM CLR 11/M04 A3030 RMK AO2
KVCV 231115Z AUTO 00000KT 10SM CLR 11/M04 A3030 RMK AO2
KVCV 231055Z AUTO 00000KT 10SM CLR 09/M04 A3030 RMK AO2
KVCV 231035Z AUTO 00000KT 10SM CLR 10/M04 A3030 RMK AO2
KVCV 231015Z AUTO 00000KT 10SM CLR 10/M04 A3030 RMK AO2
KVCV 230955Z AUTO 00000KT 10SM CLR 11/M04 A3030 RMK AO2
KVCV 230935Z AUTO 00000KT 10SM CLR 09/M04 A3030 RMK AO2
KVCV 230915Z AUTO 00000KT 10SM CLR 10/M05 A3030 RMK AO2
KVCV 230855Z AUTO 00000KT 10SM CLR 10/M05 A3030 RMK AO2
KVCV 230835Z AUTO 00000KT 10SM CLR 11/M05 A3030 RMK AO2
KVCV 230815Z AUTO 00000KT 10SM CLR 11/M05 A3030 RMK AO2
KVCV 230755Z AUTO 00000KT 10SM CLR 11/M05 A3030 RMK AO2
KVCV 230735Z AUTO 00000KT 10SM CLR 11/M05 A3030 RMK AO2
KVCV 230715Z AUTO 00000KT 10SM CLR 12/M05 A3030 RMK AO2
KVCV 230655Z AUTO 00000KT 10SM CLR 12/M05 A3030 RMK AO2
KVCV 230635Z AUTO 00000KT 10SM CLR 12/M05 A3029 RMK AO2
KVCV 230615Z AUTO 00000KT 5SM HZ CLR 12/M05 A3030 RMK AO2
KVCV 230555Z AUTO 00000KT 10SM CLR 13/M05 A3030 RMK AO2
KVCV 230535Z AUTO 00000KT 10SM CLR 13/M05 A3030 RMK AO2
KVCV 230515Z AUTO 00000KT 10SM CLR 14/M05 A3030 RMK AO2
KVCV 230455Z AUTO 00000KT 10SM CLR 14/M05 A3030 RMK AO2
KVCV 230435Z AUTO 00000KT 10SM CLR 15/M05 A3030 RMK AO2
KVCV 230415Z AUTO 00000KT 10SM CLR 16/M04 A3029 RMK AO2
KVCV 230355Z AUTO 00000KT 10SM CLR 16/M04 A3029 RMK AO2
KVCV 230335Z AUTO 00000KT 10SM CLR 17/M03 A3029 RMK AO2
KVCV 230320Z AUTO 00000KT 10SM CLR 17/M04 A3028 RMK AO2
KVCV 230255Z AUTO 00000KT 10SM CLR 22/M03 A3028 RMK AO2
KVCV 230235Z AUTO 00000KT 10SM CLR 21/M03 A3027 RMK AO2
KVCV 230215Z AUTO 00000KT 10SM CLR 22/M03 A3027 RMK AO2
KVCV 230155Z AUTO 00000KT 10SM CLR 21/M03 A3026 RMK AO2
KVCV 230135Z AUTO 00000KT 10SM CLR 22/M03 A3026 RMK AO2
KVCV 230115Z AUTO 00000KT 10SM CLR 23/M03 A3025 RMK AO2
KVCV 230055Z AUTO 00000KT 10SM CLR 25/M03 A3025 RMK AO2
KVCV 230035Z AUTO 00000KT 10SM CLR 26/M03 A3025 RMK AO2
KVCV 230015Z AUTO 02009KT 10SM CLR 26/M03 A3025 RMK AO2
KVCV 222355Z AUTO 02006KT 10SM CLR 27/M04 A3025 RMK AO2
KVCV 222335Z AUTO 01005KT 10SM CLR 27/M04 A3026 RMK AO2
KVCV 222315Z AUTO 00000KT 10SM CLR 27/M04 A3026 RMK AO2
KVCV 222255Z AUTO 02009KT 10SM CLR 27/M04 A3026 RMK AO2
KVCV 222235Z AUTO 00000KT 10SM CLR 27/M05 A3027 RMK AO2
KVCV 222215Z AUTO 03009KT 10SM CLR 27/M06 A3027 RMK AO2
KVCV 222155Z AUTO 02010G15KT 10SM CLR 27/M06 A3027 RMK AO2
KVCV 222135Z AUTO 01012KT 10SM CLR 27/M06 A3027 RMK AO2
KVCV 222115Z AUTO 01009KT 10SM CLR 27/M06 A3028 RMK AO2
KVCV 222055Z AUTO 03008KT 340V050 10SM CLR 27/M07 A3028 RMK AO2
KVCV 222035Z AUTO 00000KT 10SM CLR 26/M07 A3029 RMK AO2
KVCV 222015Z AUTO 00000KT 10SM CLR 25/M07 A3030 RMK AO2
KVCV 221955Z AUTO 00000KT 10SM CLR 24/M07 A3031 RMK AO2
KVCV 221935Z AUTO 00000KT 10SM CLR 24/M07 A3032 RMK AO2
KVCV 221915Z AUTO 00000KT 10SM CLR 23/M07 A3032 RMK AO2
KVCV 221855Z AUTO 00000KT 10SM CLR 22/M08 A3034 RMK AO2
KVCV 221835Z AUTO 00000KT 10SM CLR 21/M08 A3034 RMK AO2
KVCV 221815Z AUTO 00000KT 10SM CLR 21/M08 A3035 RMK AO2
KVCV 221755Z AUTO 00000KT 10SM CLR 19/M08 A3035 RMK AO2
KVCV 221735Z AUTO 00000KT 10SM CLR 19/M09 A3035 RMK AO2
KVCV 221715Z AUTO 00000KT 10SM CLR 18/M08 A3035 RMK AO2
KVCV 221655Z AUTO 00000KT 10SM CLR 17/M08 A3035 RMK AO2
KVCV 221635Z AUTO 00000KT 10SM CLR 16/M07 A3035 RMK AO2
KVCV 221615Z AUTO 00000KT 10SM CLR 14/M07 A3035 RMK AO2
KVCV 221555Z AUTO 00000KT 10SM CLR 13/M07 A3033 RMK AO2
KVCV 221535Z AUTO 00000KT 10SM CLR 13/M07 A3032 RMK AO2
KVCV 221515Z AUTO 00000KT 10SM CLR 11/M07 A3031 RMK AO2
KVCV 221455Z AUTO 00000KT 10SM CLR 08/M08 A3030 RMK AO2
KVCV 221435Z AUTO 00000KT 10SM CLR 07/M08 A3030 RMK AO2
KVCV 221415Z AUTO 00000KT 10SM CLR 06/M08 A3030 RMK AO2
KVCV 221355Z AUTO 00000KT 10SM CLR 06/M08 A3029 RMK AO2
KVCV 221335Z AUTO 00000KT 10SM CLR 06/M08 A3028 RMK AO2
KVCV 221315Z AUTO 00000KT 10SM CLR 07/M08 A3028 RMK AO2
KVCV 221255Z AUTO 00000KT 10SM CLR 07/M08 A3028 RMK AO2
KVCV 221235Z AUTO 00000KT 10SM CLR 09/M08 A3028 RMK AO2
KVCV 221215Z AUTO 00000KT 10SM CLR 09/M08 A3027 RMK AO2
KVCV 221155Z AUTO 00000KT 10SM CLR 07/M08 A3027 RMK AO2
KVCV 221135Z AUTO 00000KT 10SM CLR 07/M08 A3027 RMK AO2
KVCV 221115Z AUTO 00000KT 10SM CLR 08/M08 A3027 RMK AO2
KVCV 221055Z AUTO 00000KT 10SM CLR 09/M08 A3028 RMK AO2
KVCV 221035Z AUTO 00000KT 10SM CLR 07/M09 A3027 RMK AO2
KVCV 221015Z AUTO 00000KT 10SM CLR 07/M09 A3028 RMK AO2
KVCV 220955Z AUTO 00000KT 7SM CLR 07/M09 A3029 RMK AO2
KVCV 220935Z AUTO 00000KT 10SM CLR 07/M08 A3029 RMK AO2
KVCV 220915Z AUTO 00000KT 10SM CLR 08/M09 A3030 RMK AO2
KVCV 220855Z AUTO 00000KT 10SM CLR 07/M09 A3029 RMK AO2
KVCV 220835Z AUTO 00000KT 10SM CLR 09/M09 A3029 RMK AO2
KVCV 220815Z AUTO 00000KT 10SM CLR 08/M09 A3029 RMK AO2
KVCV 220755Z AUTO 00000KT 10SM CLR 08/M09 A3028 RMK AO2
KVCV 220735Z AUTO 00000KT 10SM CLR 08/M09 A3027 RMK AO2
KVCV 220715Z AUTO 00000KT 10SM CLR 11/M09 A3027 RMK AO2
KVCV 220655Z AUTO 00000KT 10SM CLR 11/M09 A3027 RMK AO2
KVCV 220635Z AUTO 00000KT 10SM CLR 11/M09 A3027 RMK AO2
KVCV 220615Z AUTO 00000KT 10SM CLR 11/M09 A3027 RMK AO2
KVCV 220555Z AUTO 00000KT 10SM CLR 11/M08 A3026 RMK AO2
KVCV 220535Z AUTO 00000KT 10SM CLR 09/M09 A3026 RMK AO2
KVCV 220515Z AUTO 00000KT 10SM CLR 11/M09 A3026 RMK AO2
KVCV 220455Z AUTO 00000KT 5SM HZ CLR 11/M09 A3025 RMK AO2
KVCV 220435Z AUTO 00000KT 10SM CLR 12/M09 A3024 RMK AO2
KVCV 220415Z AUTO 00000KT 10SM CLR 12/M08 A3024 RMK AO2
KVCV 220355Z AUTO 00000KT 7SM CLR 12/M09 A3023 RMK AO2
KVCV 220335Z AUTO 00000KT 7SM CLR 13/M09 A3023 RMK AO2
KVCV 220315Z AUTO 00000KT 10SM CLR 14/M09 A3023 RMK AO2